createdAt,value
2022-10-06T00:00:49.900Z,12.72
2022-10-06T00:03:32.886Z,12.69
2022-10-06T00:06:00.944Z,12.69
2022-10-06T00:08:28.068Z,12.69
2022-10-06T00:10:55.857Z,12.70
2022-10-06T00:13:23.983Z,12.71
2022-10-06T00:15:50.905Z,12.71
2022-10-06T00:18:17.465Z,12.70
2022-10-06T00:20:44.015Z,12.69
2022-10-06T00:23:11.402Z,12.68
2022-10-06T00:25:37.848Z,12.68
2022-10-06T00:28:04.416Z,12.66
2022-10-06T00:30:31.039Z,12.64
2022-10-06T00:33:04.004Z,12.65
2022-10-06T00:35:33.872Z,12.67
2022-10-06T00:38:02.312Z,12.65
2022-10-06T00:40:31.700Z,12.60
2022-10-06T00:43:05.691Z,12.50
2022-10-06T00:45:40.497Z,12.42
2022-10-06T00:48:17.692Z,12.34
2022-10-06T00:50:46.083Z,12.29
2022-10-06T00:53:16.153Z,12.26
2022-10-06T00:55:43.603Z,12.25
2022-10-06T00:58:10.628Z,12.24
2022-10-06T01:00:39.435Z,12.24
2022-10-06T01:03:10.755Z,12.25
2022-10-06T01:05:43.612Z,12.26
2022-10-06T01:08:10.252Z,12.25
2022-10-06T01:10:37.428Z,12.24
2022-10-06T01:13:06.239Z,12.22
2022-10-06T01:15:36.661Z,12.21
2022-10-06T01:18:17.259Z,12.20
2022-10-06T01:21:07.083Z,12.17
2022-10-06T01:23:35.832Z,12.10
2022-10-06T01:26:07.116Z,12.07
2022-10-06T01:28:34.388Z,12.03
2022-10-06T01:31:04.001Z,12.00
2022-10-06T01:33:35.432Z,11.98
2022-10-06T01:36:04.632Z,11.97
2022-10-06T01:38:31.881Z,11.96
2022-10-06T01:41:03.522Z,11.96
2022-10-06T01:43:30.539Z,11.99
2022-10-06T01:45:59.012Z,11.98
2022-10-06T01:48:26.989Z,11.97
2022-10-06T01:50:57.478Z,11.97
2022-10-06T01:53:23.992Z,11.96
2022-10-06T01:55:51.544Z,11.94
2022-10-06T01:58:25.491Z,11.93
2022-10-06T02:00:53.845Z,11.92
2022-10-06T02:03:20.366Z,11.87
2022-10-06T02:05:47.717Z,11.86
2022-10-06T02:08:14.388Z,11.83
2022-10-06T02:10:42.296Z,11.83
2022-10-06T02:13:17.156Z,11.83
2022-10-06T02:15:44.020Z,11.85
2022-10-06T02:18:10.621Z,11.83
2022-10-06T02:20:38.078Z,11.81
2022-10-06T02:23:05.031Z,11.83
2022-10-06T02:25:31.564Z,11.82
2022-10-06T02:28:00.009Z,11.82
2022-10-06T02:30:27.189Z,11.83
2022-10-06T02:32:57.105Z,11.79
2022-10-06T02:35:26.290Z,11.79
2022-10-06T02:37:55.148Z,11.77
2022-10-06T02:40:24.968Z,11.75
2022-10-06T02:42:51.439Z,11.73
2022-10-06T02:45:20.795Z,11.72
2022-10-06T02:47:49.109Z,11.70
2022-10-06T02:50:18.528Z,11.69
2022-10-06T02:52:45.245Z,11.68
2022-10-06T02:55:13.486Z,11.68
2022-10-06T02:57:39.956Z,11.66
2022-10-06T03:00:10.342Z,11.59
2022-10-06T03:02:40.006Z,11.60
2022-10-06T03:05:07.552Z,11.59
2022-10-06T03:07:34.602Z,11.55
2022-10-06T03:10:03.086Z,11.49
2022-10-06T03:12:32.454Z,11.46
2022-10-06T03:14:59.615Z,11.42
2022-10-06T03:17:28.460Z,11.40
2022-10-06T03:19:59.445Z,11.42
2022-10-06T03:22:36.058Z,11.46
2022-10-06T03:25:03.509Z,11.47
2022-10-06T03:27:30.009Z,11.48
2022-10-06T03:29:59.684Z,11.48
2022-10-06T03:32:27.496Z,11.51
2022-10-06T03:34:54.532Z,11.48
2022-10-06T03:37:22.287Z,11.46
2022-10-06T03:39:50.279Z,11.44
2022-10-06T03:42:19.550Z,11.45
2022-10-06T03:44:47.028Z,11.45
2022-10-06T03:47:17.202Z,11.45
2022-10-06T03:49:46.759Z,11.45
2022-10-06T03:52:14.484Z,11.45
2022-10-06T03:54:41.258Z,11.44
2022-10-06T03:57:08.689Z,11.43
2022-10-06T03:59:36.326Z,11.41
2022-10-06T04:02:04.686Z,11.41
2022-10-06T04:04:34.861Z,11.42
2022-10-06T04:07:06.155Z,11.43
2022-10-06T04:09:32.749Z,11.43
2022-10-06T04:12:01.213Z,11.45
2022-10-06T04:14:29.166Z,11.45
2022-10-06T04:16:57.070Z,11.45
2022-10-06T04:19:35.216Z,11.45
2022-10-06T04:22:02.352Z,11.44
2022-10-06T04:24:32.180Z,11.43
2022-10-06T04:27:19.286Z,11.43
2022-10-06T04:30:03.715Z,11.45
2022-10-06T04:32:33.213Z,11.46
2022-10-06T04:35:02.823Z,11.47
2022-10-06T04:37:30.545Z,11.46
2022-10-06T04:39:58.709Z,11.43
2022-10-06T04:42:25.984Z,11.43
2022-10-06T04:44:52.695Z,11.41
2022-10-06T04:47:20.411Z,11.42
2022-10-06T04:49:49.243Z,11.44
2022-10-06T04:52:16.497Z,11.49
2022-10-06T04:54:42.972Z,11.54
2022-10-06T04:57:09.536Z,11.56
2022-10-06T04:59:56.283Z,11.58
2022-10-06T05:02:25.344Z,11.58
2022-10-06T05:04:56.481Z,11.60
2022-10-06T05:07:25.046Z,11.59
2022-10-06T05:09:53.008Z,11.55
2022-10-06T05:12:19.490Z,11.57
2022-10-06T05:14:46.112Z,11.59
2022-10-06T05:17:12.812Z,11.64
2022-10-06T05:19:39.355Z,11.71
2022-10-06T05:22:06.984Z,11.74
2022-10-06T05:24:35.253Z,11.77
2022-10-06T05:27:03.814Z,11.78
2022-10-06T05:29:31.678Z,11.80
2022-10-06T05:31:58.292Z,11.81
2022-10-06T05:34:25.674Z,11.84
2022-10-06T05:36:54.178Z,11.90
2022-10-06T05:39:21.153Z,11.99
2022-10-06T05:41:57.223Z,12.06
2022-10-06T05:44:25.082Z,12.11
2022-10-06T05:46:51.680Z,12.15
2022-10-06T05:49:20.831Z,12.20
2022-10-06T05:51:52.808Z,12.24
2022-10-06T05:54:24.321Z,12.28
2022-10-06T05:56:50.766Z,12.30
2022-10-06T05:59:18.441Z,12.37
2022-10-06T06:01:45.221Z,12.46
2022-10-06T06:04:18.515Z,12.56
2022-10-06T06:06:49.903Z,12.66
2022-10-06T06:09:28.196Z,12.78
2022-10-06T06:11:59.679Z,12.90
2022-10-06T06:14:51.719Z,13.05
2022-10-06T06:17:23.007Z,13.20
2022-10-06T06:19:50.626Z,13.36
2022-10-06T06:22:18.002Z,13.50
2022-10-06T06:24:49.212Z,13.69
2022-10-06T06:27:16.869Z,13.82
2022-10-06T06:29:45.078Z,13.95
2022-10-06T06:32:11.718Z,14.05
2022-10-06T06:34:38.475Z,14.14
2022-10-06T06:37:14.866Z,14.23
2022-10-06T06:39:45.108Z,14.42
2022-10-06T06:42:14.583Z,14.62
2022-10-06T06:44:56.403Z,14.87
2022-10-06T06:47:38.400Z,15.16
2022-10-06T06:50:09.541Z,15.29
2022-10-06T06:52:36.888Z,15.32
2022-10-06T06:55:05.213Z,15.36
2022-10-06T06:57:34.811Z,15.35
2022-10-06T07:00:08.457Z,15.34
2022-10-06T07:02:38.987Z,15.31
2022-10-06T07:05:06.470Z,15.29
2022-10-06T07:07:36.303Z,15.31
2022-10-06T07:10:03.515Z,15.35
2022-10-06T07:12:33.596Z,15.41
2022-10-06T07:15:19.736Z,15.48
2022-10-06T07:18:11.137Z,15.57
2022-10-06T07:20:57.250Z,15.65
2022-10-06T07:23:44.962Z,15.76
2022-10-06T07:26:15.928Z,15.88
2022-10-06T07:28:43.067Z,15.98
2022-10-06T07:31:11.124Z,16.09
2022-10-06T07:33:40.162Z,16.18
2022-10-06T07:36:09.571Z,16.29
2022-10-06T07:38:42.206Z,16.39
2022-10-06T07:41:23.860Z,16.47
2022-10-06T07:43:57.069Z,16.53
2022-10-06T07:46:26.764Z,16.58
2022-10-06T07:48:59.920Z,16.62
2022-10-06T07:51:28.642Z,16.63
2022-10-06T07:53:57.648Z,16.67
2022-10-06T07:56:30.373Z,16.72
2022-10-06T07:58:58.599Z,16.80
2022-10-06T08:01:30.363Z,16.87
2022-10-06T08:03:56.950Z,16.99
2022-10-06T08:06:24.382Z,17.06
2022-10-06T08:08:55.950Z,17.05
2022-10-06T08:11:22.666Z,17.01
2022-10-06T08:13:51.532Z,16.99
2022-10-06T08:16:21.135Z,16.94
2022-10-06T08:18:52.939Z,16.93
2022-10-06T08:21:28.264Z,16.93
2022-10-06T08:24:10.144Z,16.91
2022-10-06T08:26:46.127Z,16.90
2022-10-06T08:29:12.705Z,16.92
2022-10-06T08:31:42.227Z,16.99
2022-10-06T08:34:12.190Z,17.11
2022-10-06T08:36:39.567Z,17.21
2022-10-06T08:39:07.305Z,17.25
2022-10-06T08:41:45.435Z,17.26
2022-10-06T08:44:25.223Z,17.28
2022-10-06T08:46:53.775Z,17.30
2022-10-06T08:49:25.088Z,17.32
2022-10-06T08:52:17.795Z,17.36
2022-10-06T08:55:21.060Z,17.43
2022-10-06T08:57:55.733Z,17.49
2022-10-06T09:00:23.761Z,17.53
2022-10-06T09:02:55.453Z,17.54
2022-10-06T09:05:27.613Z,17.51
2022-10-06T09:08:12.401Z,17.46
2022-10-06T09:11:12.359Z,17.43
2022-10-06T09:13:43.736Z,17.38
2022-10-06T09:16:16.028Z,17.34
2022-10-06T09:19:15.000Z,17.37
2022-10-06T09:21:51.557Z,17.33
2022-10-06T09:24:46.238Z,17.34
2022-10-06T09:27:22.510Z,17.38
2022-10-06T09:29:51.343Z,17.32
2022-10-06T09:32:22.053Z,17.27
2022-10-06T09:34:59.465Z,17.20
2022-10-06T09:37:27.584Z,17.09
2022-10-06T09:39:54.520Z,17.04
2022-10-06T09:42:32.434Z,16.99
2022-10-06T09:45:25.838Z,16.97
2022-10-06T09:47:52.639Z,16.89
2022-10-06T09:50:26.890Z,16.89
2022-10-06T09:53:00.197Z,16.90
2022-10-06T09:55:54.837Z,16.97
2022-10-06T09:58:34.084Z,16.98
2022-10-06T10:01:04.263Z,16.97
2022-10-06T10:06:38.871Z,17.02
2022-10-06T10:09:22.037Z,17.11
2022-10-06T10:12:25.933Z,17.24
2022-10-06T10:15:30.675Z,17.36
2022-10-06T10:18:02.479Z,17.51
2022-10-06T10:20:29.022Z,17.56
2022-10-06T10:23:44.064Z,17.62
2022-10-06T10:26:18.687Z,17.59
2022-10-06T10:29:07.250Z,17.56
2022-10-06T10:31:55.306Z,17.55
2022-10-06T10:34:31.528Z,17.48
2022-10-06T10:37:39.364Z,17.45
2022-10-06T10:40:37.140Z,17.39
2022-10-06T10:43:20.964Z,17.28
2022-10-06T10:46:17.128Z,17.26
2022-10-06T10:48:56.374Z,17.29
2022-10-06T10:51:34.156Z,17.27
2022-10-06T10:54:08.530Z,17.25
2022-10-06T10:56:40.322Z,17.22
2022-10-06T10:59:35.961Z,17.23
2022-10-06T11:02:24.898Z,17.23
2022-10-06T11:05:17.561Z,17.48
2022-10-06T11:08:06.980Z,17.74
2022-10-06T11:10:45.745Z,17.75
2022-10-06T11:13:36.195Z,17.69
2022-10-06T11:16:35.960Z,17.65
2022-10-06T11:19:16.109Z,17.57
2022-10-06T11:22:00.959Z,17.49
2022-10-06T11:24:44.958Z,17.44
2022-10-06T11:27:42.423Z,17.41
2022-10-06T11:30:24.121Z,17.40
2022-10-06T11:33:13.028Z,17.48
2022-10-06T11:35:49.006Z,17.54
2022-10-06T11:38:33.286Z,17.52
2022-10-06T11:41:32.095Z,17.55
2022-10-06T11:47:35.931Z,17.74
2022-10-06T11:50:37.016Z,17.88
2022-10-06T11:53:53.998Z,18.01
2022-10-06T11:56:34.455Z,18.23
2022-10-06T11:59:12.725Z,18.37
2022-10-06T12:01:43.621Z,18.44
2022-10-06T12:04:10.277Z,18.47
2022-10-06T12:06:45.518Z,18.51
2022-10-06T12:09:29.530Z,18.59
2022-10-06T12:12:20.798Z,18.67
2022-10-06T12:18:18.100Z,18.72
2022-10-06T12:20:49.541Z,19.18
2022-10-06T12:23:38.379Z,19.13
2022-10-06T12:26:43.391Z,19.08
2022-10-06T12:29:20.355Z,18.96
2022-10-06T12:32:06.957Z,19.01
2022-10-06T12:34:55.753Z,19.48
2022-10-06T12:37:36.103Z,20.09
2022-10-06T12:40:40.351Z,20.42
2022-10-06T12:43:11.715Z,20.32
2022-10-06T12:45:45.918Z,20.47
2022-10-06T12:48:38.512Z,20.78
2022-10-06T12:51:18.317Z,20.93
2022-10-06T12:53:50.630Z,21.22
2022-10-06T12:56:34.328Z,21.52
2022-10-06T12:59:24.349Z,21.47
2022-10-06T13:01:59.261Z,20.95
2022-10-06T13:04:43.558Z,20.97
2022-10-06T13:07:13.850Z,21.34
2022-10-06T13:09:40.779Z,21.79
2022-10-06T13:12:31.073Z,22.30
2022-10-06T13:15:17.475Z,22.90
2022-10-06T13:18:15.349Z,23.31
2022-10-06T13:20:55.032Z,23.21
2022-10-06T13:23:27.939Z,23.44
2022-10-06T13:26:05.249Z,23.76
2022-10-06T13:28:33.702Z,23.94
2022-10-06T13:31:05.797Z,24.19
2022-10-06T13:33:40.448Z,24.29
2022-10-06T13:36:08.593Z,24.49
2022-10-06T13:38:36.207Z,24.61
2022-10-06T13:41:12.992Z,24.82
2022-10-06T13:43:44.903Z,25.10
2022-10-06T13:46:15.424Z,25.41
2022-10-06T13:48:59.360Z,25.63
2022-10-06T13:51:31.280Z,25.86
2022-10-06T13:54:04.049Z,26.08
2022-10-06T13:56:38.259Z,26.23
2022-10-06T13:59:30.360Z,26.56
2022-10-06T14:02:17.334Z,26.90
2022-10-06T14:05:04.452Z,27.23
2022-10-06T14:07:31.918Z,27.71
2022-10-06T14:09:58.367Z,28.01
2022-10-06T14:12:26.246Z,28.13
2022-10-06T14:14:56.068Z,27.92
2022-10-06T14:17:25.482Z,28.00
2022-10-06T14:19:51.999Z,28.37
2022-10-06T14:22:31.746Z,28.83
2022-10-06T14:24:59.518Z,29.49
2022-10-06T14:27:26.306Z,29.57
2022-10-06T14:29:56.536Z,29.27
2022-10-06T14:32:23.294Z,29.24
2022-10-06T14:34:50.812Z,29.37
2022-10-06T14:37:18.014Z,29.70
2022-10-06T14:39:45.495Z,28.66
2022-10-06T14:42:14.444Z,28.93
2022-10-06T14:44:42.946Z,29.36
2022-10-06T14:47:12.097Z,29.81
2022-10-06T14:49:38.795Z,30.11
2022-10-06T14:52:09.922Z,30.40
2022-10-06T14:54:38.227Z,30.43
2022-10-06T14:57:04.845Z,30.52
2022-10-06T14:59:33.238Z,31.03
2022-10-06T15:02:04.301Z,31.35
2022-10-06T15:04:31.240Z,31.85
2022-10-06T15:07:18.537Z,31.90
2022-10-06T15:09:47.687Z,31.20
2022-10-06T15:12:16.798Z,31.16
2022-10-06T15:14:44.486Z,30.92
2022-10-06T15:17:11.220Z,30.62
2022-10-06T15:19:40.184Z,30.46
2022-10-06T15:22:08.440Z,30.78
2022-10-06T15:24:34.942Z,31.37
2022-10-06T15:27:25.011Z,31.67
2022-10-06T15:29:52.335Z,31.58
2022-10-06T15:32:18.830Z,31.43
2022-10-06T15:34:45.367Z,31.40
2022-10-06T15:37:11.883Z,31.25
2022-10-06T15:39:38.381Z,29.66
2022-10-06T15:42:05.454Z,27.92
2022-10-06T15:44:33.879Z,26.40
2022-10-06T15:47:01.175Z,25.27
2022-10-06T15:49:37.563Z,24.39
2022-10-06T15:52:13.049Z,23.51
2022-10-06T15:54:41.865Z,22.89
2022-10-06T15:57:19.434Z,22.26
2022-10-06T15:59:49.583Z,21.63
2022-10-06T16:02:17.470Z,21.19
2022-10-06T16:05:01.930Z,20.79
2022-10-06T16:07:42.471Z,20.44
2022-10-06T16:10:11.262Z,20.10
2022-10-06T16:12:45.473Z,19.78
2022-10-06T16:15:12.213Z,19.43
2022-10-06T16:17:42.736Z,19.08
2022-10-06T16:20:10.797Z,18.79
2022-10-06T16:22:37.699Z,18.50
2022-10-06T16:25:05.667Z,18.23
2022-10-06T16:27:34.901Z,17.96
2022-10-06T16:30:01.555Z,17.69
2022-10-06T16:32:31.418Z,17.46
2022-10-06T16:34:58.067Z,17.18
2022-10-06T16:37:25.587Z,16.90
2022-10-06T16:39:52.304Z,16.65
2022-10-06T16:42:19.136Z,16.46
2022-10-06T16:44:45.678Z,16.30
2022-10-06T16:47:15.394Z,16.15
2022-10-06T16:49:41.893Z,16.01
2022-10-06T16:52:09.885Z,15.87
2022-10-06T16:54:36.378Z,15.72
2022-10-06T16:57:07.015Z,15.58
2022-10-06T16:59:33.745Z,15.43
2022-10-06T17:02:03.064Z,15.32
2022-10-06T17:04:31.355Z,15.20
2022-10-06T17:07:02.667Z,15.10
2022-10-06T17:09:33.670Z,15.05
2022-10-06T17:12:03.620Z,14.96
2022-10-06T17:14:31.605Z,14.88
2022-10-06T17:17:01.522Z,14.74
2022-10-06T17:19:29.361Z,14.57
2022-10-06T17:21:59.475Z,14.44
2022-10-06T17:24:30.566Z,14.32
2022-10-06T17:26:58.461Z,14.21
2022-10-06T17:29:30.950Z,14.10
2022-10-06T17:31:59.138Z,14.05
2022-10-06T17:34:31.720Z,13.99
2022-10-06T17:37:04.528Z,13.89
2022-10-06T17:40:44.793Z,13.80
2022-10-06T17:43:14.913Z,13.72
2022-10-06T17:45:42.794Z,13.68
2022-10-06T17:48:12.253Z,13.65
2022-10-06T17:50:40.055Z,13.58
2022-10-06T17:53:07.909Z,13.53
2022-10-06T17:55:36.704Z,13.49
2022-10-06T17:58:08.059Z,13.42
2022-10-06T18:01:46.445Z,13.32
2022-10-06T18:04:16.491Z,13.17
2022-10-06T18:06:47.677Z,13.06
2022-10-06T18:09:19.401Z,12.98
2022-10-06T18:11:55.880Z,12.90
2022-10-06T18:14:33.972Z,12.84
2022-10-06T18:17:05.928Z,12.82
2022-10-06T18:19:38.403Z,12.78
2022-10-06T18:22:11.679Z,12.76
2022-10-06T18:24:41.615Z,12.72
2022-10-06T18:27:14.089Z,12.68
2022-10-06T18:29:43.790Z,12.66
2022-10-06T18:38:05.173Z,12.57
2022-10-06T18:40:32.951Z,12.48
2022-10-06T18:43:03.069Z,12.41
2022-10-06T18:45:53.730Z,12.37
2022-10-06T18:48:40.230Z,12.32
2022-10-06T18:51:08.209Z,12.26
2022-10-06T18:53:39.260Z,12.23
2022-10-06T18:56:08.249Z,12.17
2022-10-06T18:58:44.324Z,12.08
2022-10-06T19:01:13.550Z,12.02
2022-10-06T19:03:41.663Z,11.95
2022-10-06T19:06:09.604Z,11.87
2022-10-06T19:08:37.678Z,11.85
2022-10-06T19:11:38.876Z,11.84
2022-10-06T19:14:07.175Z,11.80
2022-10-06T19:16:35.203Z,11.77
2022-10-06T19:19:06.501Z,11.75
2022-10-06T19:21:36.929Z,11.73
2022-10-06T19:24:05.585Z,11.70
2022-10-06T19:26:33.906Z,11.63
2022-10-06T19:29:05.026Z,11.57
2022-10-06T19:31:32.846Z,11.53
2022-10-06T19:34:04.164Z,11.49
2022-10-06T19:36:32.512Z,11.50
2022-10-06T19:39:04.171Z,11.51
2022-10-06T19:41:51.758Z,11.53
2022-10-06T19:44:19.559Z,11.54
2022-10-06T19:46:47.645Z,11.50
2022-10-06T19:49:17.175Z,11.47
2022-10-06T19:51:45.376Z,11.42
2022-10-06T19:54:13.483Z,11.27
2022-10-06T19:56:41.707Z,11.14
2022-10-06T19:59:14.291Z,11.14
2022-10-06T20:01:42.772Z,11.14
2022-10-06T20:04:12.993Z,11.12
2022-10-06T20:06:42.263Z,11.07
2022-10-06T20:09:14.993Z,11.08
2022-10-06T20:11:45.196Z,11.11
2022-10-06T20:14:23.501Z,11.10
2022-10-06T20:16:54.470Z,11.05
2022-10-06T20:19:25.623Z,10.95
2022-10-06T20:21:53.595Z,10.85
2022-10-06T20:24:24.497Z,10.80
2022-10-06T20:26:53.772Z,10.75
2022-10-06T20:29:25.240Z,10.72
2022-10-06T20:31:55.278Z,10.70
2022-10-06T20:34:32.482Z,10.66
2022-10-06T20:37:04.904Z,10.62
2022-10-06T20:39:55.208Z,10.54
2022-10-06T20:42:23.260Z,10.52
2022-10-06T20:44:51.131Z,10.53
2022-10-06T20:47:19.196Z,10.49
2022-10-06T20:49:47.218Z,10.44
2022-10-06T20:52:15.178Z,10.41
2022-10-06T20:54:43.367Z,10.33
2022-10-06T20:57:13.018Z,10.22
2022-10-06T20:59:45.268Z,10.10
2022-10-06T21:02:16.606Z,10.03
2022-10-06T21:04:45.246Z,10.00
2022-10-06T21:07:13.045Z,9.98
2022-10-06T21:09:40.795Z,9.99
2022-10-06T21:12:09.219Z,10.02
2022-10-06T21:14:37.844Z,10.05
2022-10-06T21:17:08.125Z,10.03
2022-10-06T21:19:37.675Z,9.95
2022-10-06T21:22:06.099Z,9.87
2022-10-06T21:24:36.585Z,9.86
2022-10-06T21:27:04.515Z,9.86
2022-10-06T21:29:32.335Z,9.77
2022-10-06T21:32:00.417Z,9.67
2022-10-06T21:34:28.167Z,9.59
2022-10-06T21:36:56.153Z,9.58
2022-10-06T21:39:23.925Z,9.54
2022-10-06T21:41:51.688Z,9.44
2022-10-06T21:44:19.677Z,9.33
2022-10-06T21:46:49.443Z,9.30
2022-10-06T21:49:19.725Z,9.24
2022-10-06T21:51:49.868Z,9.26
2022-10-06T21:54:18.555Z,9.31
2022-10-06T21:56:47.195Z,9.37
2022-10-06T21:59:15.349Z,9.32
2022-10-06T22:01:45.359Z,9.31
2022-10-06T22:04:14.487Z,9.31
2022-10-06T22:06:44.619Z,9.32
2022-10-06T22:09:15.171Z,9.34
2022-10-06T22:11:44.146Z,9.27
2022-10-06T22:14:14.115Z,9.18
2022-10-06T22:16:42.828Z,9.08
2022-10-06T22:19:18.464Z,9.04
2022-10-06T22:21:48.405Z,9.02
2022-10-06T22:24:20.691Z,8.98
2022-10-06T22:26:49.395Z,8.94
2022-10-06T22:29:19.010Z,8.89
2022-10-06T22:31:49.103Z,8.92
2022-10-06T22:34:19.713Z,8.96
2022-10-06T22:36:48.406Z,8.98
2022-10-06T22:39:16.674Z,8.91
2022-10-06T22:41:45.344Z,8.87
2022-10-06T22:44:13.121Z,8.89
2022-10-06T22:46:41.507Z,8.92
2022-10-06T22:49:09.596Z,8.97
2022-10-06T22:51:39.612Z,8.93
2022-10-06T22:54:10.056Z,8.87
2022-10-06T22:56:39.451Z,8.82
2022-10-06T22:59:07.155Z,8.81
2022-10-06T23:01:35.070Z,8.82
2022-10-06T23:04:02.930Z,8.83
2022-10-06T23:06:31.570Z,8.79
2022-10-06T23:08:59.604Z,8.81
2022-10-06T23:11:27.960Z,8.85
2022-10-06T23:13:56.549Z,8.90
2022-10-06T23:16:24.968Z,8.87
2022-10-06T23:18:52.835Z,8.76
2022-10-06T23:21:23.914Z,8.62
2022-10-06T23:23:54.152Z,8.59
2022-10-06T23:26:23.234Z,8.60
2022-10-06T23:28:56.341Z,8.61
2022-10-06T23:31:25.216Z,8.60
2022-10-06T23:33:54.184Z,8.57
2022-10-06T23:36:22.164Z,8.55
2022-10-06T23:38:50.148Z,8.58
2022-10-06T23:41:18.852Z,8.60
2022-10-06T23:43:46.593Z,8.55
2022-10-06T23:46:14.894Z,8.49
2022-10-06T23:48:44.184Z,8.44
2022-10-06T23:51:15.351Z,8.40
2022-10-06T23:53:46.013Z,8.42
2022-10-06T23:56:13.839Z,8.48
2022-10-06T23:58:42.945Z,8.47
